Fortuna, Missouri
Current Conditions -  °F | °C
As of 5:26 AM on Friday 24 Oct 2014 (Local Time) from KDMO Reporting Station
Haze Haze  
Wind Chill: 60°   Ceiling: 500
Heat Index: 60°   Visibility: 5mi
Dew Point: 57°   Wind: 6mph
Humidity: 90%   Direction: 240°WSW
Pressure: 30.1"   Gusts: NA
Location:  38.57°N, 92.8°W
Report Text: KDMO 241026Z AUTO 24005KT 5SM BR OVC005 16/14 A3010 RMK AO2 T01560139
Loading
Personal Weather Stations






























Interactive Weather Map
Tropical Storm Tracking
New forecast layout! Learn more

10-Day Weather Forecast

Advertisements
Track Severe Weather on mobile